Time;durP1;ratioP1;P1;durP2;ratioP2;P2;SDS_P1;SDS_P2;PMS_P1;PMS_P2;Temp;Humidity;BMP_temperature;BMP_pressure;BME280_temperature;BME280_humidity;BME280_pressure;Samples;Min_cycle;Max_cycle;Signal;HPM_P1;HPM_P2
2022/04/24 00:01:31;;;;;;;62.38;32.75;;;;;;;;;;6262136;28;20044;-48
2022/04/24 00:04:31;;;;;;;61.40;30.42;;;;;;;;;;6263871;28;20403;-48
2022/04/24 00:07:32;;;;;;;60.38;30.75;;;;;;;;;;6263557;28;20041;-48
2022/04/24 00:10:32;;;;;;;64.18;29.67;;;;;;;;;;6262241;28;20049;-53
2022/04/24 00:13:38;;;;;;;65.13;31.25;;;;;;;;;;6260787;28;20049;-48
2022/04/24 00:16:39;;;;;;;59.10;30.33;;;;;;;;;;6263823;28;20037;-48
2022/04/24 00:19:40;;;;;;;66.32;31.85;;;;;;;;;;6263564;28;20451;-48
2022/04/24 00:22:41;;;;;;;60.78;30.25;;;;;;;;;;6263320;28;20045;-48
2022/04/24 00:25:42;;;;;;;61.78;30.55;;;;;;;;;;6262757;28;20055;-47
2022/04/24 00:28:42;;;;;;;56.00;29.15;;;;;;;;;;6262070;28;20049;-47
2022/04/24 00:31:43;;;;;;;54.20;27.52;;;;;;;;;;6264358;28;20048;-48
2022/04/24 00:34:43;;;;;;;54.10;26.65;;;;;;;;;;6263105;28;20142;-59
2022/04/24 00:37:44;;;;;;;52.80;27.77;;;;;;;;;;6263626;28;20487;-48
2022/04/24 00:40:47;;;;;;;55.10;28.25;;;;;;;;;;6262656;28;20160;-49
2022/04/24 00:43:54;;;;;;;53.88;26.60;;;;;;;;;;6260977;28;20052;-47
2022/04/24 00:47:00;;;;;;;51.05;27.38;;;;;;;;;;6257297;28;20554;-48
2022/04/24 00:50:01;;;;;;;51.88;26.38;;;;;;;;;;6261417;28;20496;-48
2022/04/24 00:53:01;;;;;;;63.47;30.40;;;;;;;;;;6261842;28;20139;-48
2022/04/24 00:56:02;;;;;;;48.85;24.33;;;;;;;;;;6262502;28;20454;-48
2022/04/24 00:59:04;;;;;;;48.72;24.95;;;;;;;;;;6263727;28;20128;-49
2022/04/24 01:02:06;;;;;;;50.63;25.63;;;;;;;;;;6262216;28;20139;-48
2022/04/24 01:05:08;;;;;;;48.22;25.90;;;;;;;;;;6264728;28;20796;-48
2022/04/24 01:08:09;;;;;;;53.50;25.83;;;;;;;;;;6268543;28;20049;-48
2022/04/24 01:11:09;;;;;;;54.63;25.95;;;;;;;;;;6268759;28;20206;-51
2022/04/24 01:14:11;;;;;;;54.78;26.77;;;;;;;;;;6265018;28;20052;-48
2022/04/24 01:17:11;;;;;;;48.80;26.03;;;;;;;;;;6265986;28;20063;-48
2022/04/24 01:20:19;;;;;;;53.42;26.42;;;;;;;;;;6266407;28;20072;-47
2022/04/24 01:23:20;;;;;;;57.03;28.08;;;;;;;;;;6266326;28;20044;-50
2022/04/24 01:26:22;;;;;;;59.45;27.55;;;;;;;;;;6266198;28;20053;-48
2022/04/24 01:29:23;;;;;;;54.88;28.33;;;;;;;;;;6269055;28;20126;-47
2022/04/24 01:32:23;;;;;;;53.67;28.08;;;;;;;;;;6268057;28;20517;-47
2022/04/24 01:35:24;;;;;;;59.55;27.48;;;;;;;;;;6264355;28;20139;-47
2022/04/24 01:38:25;;;;;;;55.72;27.23;;;;;;;;;;6263763;28;20044;-49
2022/04/24 01:41:25;;;;;;;52.42;27.55;;;;;;;;;;6266781;28;20102;-47
2022/04/24 01:44:26;;;;;;;48.92;25.05;;;;;;;;;;6265571;28;20458;-52
2022/04/24 01:47:27;;;;;;;56.58;27.63;;;;;;;;;;6265585;28;20144;-47
2022/04/24 01:50:27;;;;;;;56.10;28.65;;;;;;;;;;6268413;28;20067;-47
2022/04/24 01:53:31;;;;;;;58.88;29.50;;;;;;;;;;6265379;28;20128;-47
2022/04/24 01:56:32;;;;;;;51.55;28.15;;;;;;;;;;6268350;28;20045;-48
2022/04/24 01:59:32;;;;;;;52.53;29.42;;;;;;;;;;6265525;28;20129;-48
2022/04/24 02:02:33;;;;;;;55.47;27.23;;;;;;;;;;6266391;28;20045;-48
2022/04/24 02:05:33;;;;;;;50.70;25.95;;;;;;;;;;6264548;28;20048;-49
2022/04/24 02:08:35;;;;;;;49.25;25.80;;;;;;;;;;6267351;28;20045;-47
2022/04/24 02:11:35;;;;;;;59.45;28.83;;;;;;;;;;6267785;28;20041;-48
2022/04/24 02:14:36;;;;;;;61.33;28.88;;;;;;;;;;6263071;28;20136;-48
2022/04/24 02:17:37;;;;;;;58.33;30.98;;;;;;;;;;6266964;28;20136;-48
2022/04/24 02:20:37;;;;;;;60.40;31.15;;;;;;;;;;6265445;28;20071;-48
2022/04/24 02:23:38;;;;;;;54.55;28.55;;;;;;;;;;6263589;28;20085;-48
2022/04/24 02:26:38;;;;;;;56.70;29.45;;;;;;;;;;6265710;28;20037;-49
2022/04/24 02:29:39;;;;;;;52.78;26.90;;;;;;;;;;6264986;28;20045;-48
2022/04/24 02:32:40;;;;;;;48.42;25.88;;;;;;;;;;6266026;28;20140;-49
2022/04/24 02:35:40;;;;;;;51.13;25.80;;;;;;;;;;6266594;28;20160;-47
2022/04/24 02:38:41;;;;;;;46.80;23.63;;;;;;;;;;6265281;28;20063;-48
2022/04/24 02:41:41;;;;;;;44.65;21.45;;;;;;;;;;6264745;28;20124;-48
2022/04/24 02:44:42;;;;;;;49.20;24.67;;;;;;;;;;6265258;28;20049;-47
2022/04/24 02:47:42;;;;;;;46.60;23.38;;;;;;;;;;6266124;28;20057;-47
2022/04/24 02:50:43;;;;;;;47.85;24.15;;;;;;;;;;6239451;28;20480;-48
2022/04/24 02:53:43;;;;;;;46.00;23.15;;;;;;;;;;6262235;28;20143;-48
2022/04/24 02:56:44;;;;;;;45.00;23.60;;;;;;;;;;6265411;28;20041;-47
2022/04/24 02:59:45;;;;;;;43.05;21.98;;;;;;;;;;6266351;28;20045;-48
2022/04/24 03:02:46;;;;;;;40.63;20.88;;;;;;;;;;6262728;28;20068;-48
2022/04/24 03:05:48;;;;;;;39.90;20.17;;;;;;;;;;6264711;28;20056;-48
2022/04/24 03:08:49;;;;;;;38.95;21.23;;;;;;;;;;6264700;28;20084;-48
2022/04/24 03:11:49;;;;;;;44.78;24.02;;;;;;;;;;6264074;28;20055;-47
2022/04/24 03:14:50;;;;;;;47.20;24.83;;;;;;;;;;6265469;28;20055;-48
2022/04/24 03:17:54;;;;;;;47.30;22.38;;;;;;;;;;6262349;28;20041;-47
2022/04/24 03:20:55;;;;;;;38.63;19.55;;;;;;;;;;6264259;28;20064;-47
2022/04/24 03:23:55;;;;;;;38.17;20.33;;;;;;;;;;6258621;28;20778;-48
2022/04/24 03:26:56;;;;;;;47.15;23.65;;;;;;;;;;6264004;28;20072;-48
2022/04/24 03:29:57;;;;;;;49.30;23.67;;;;;;;;;;6262984;28;20140;-47
2022/04/24 03:32:58;;;;;;;47.80;23.97;;;;;;;;;;6263165;28;20155;-48
2022/04/24 03:35:58;;;;;;;43.20;22.33;;;;;;;;;;6263845;28;20098;-51
2022/04/24 03:38:59;;;;;;;53.13;24.98;;;;;;;;;;6263348;28;20041;-48
2022/04/24 03:42:00;;;;;;;65.57;27.83;;;;;;;;;;6262363;28;20045;-48
2022/04/24 03:45:01;;;;;;;58.80;26.90;;;;;;;;;;6263506;28;20424;-47
2022/04/24 03:48:02;;;;;;;67.68;29.42;;;;;;;;;;6263059;28;20484;-49
2022/04/24 03:51:07;;;;;;;64.80;27.95;;;;;;;;;;6264261;28;20145;-48
2022/04/24 03:54:07;;;;;;;;;;;;;;;;;;6263438;28;20092;-48
2022/04/24 03:57:08;;;;;;;64.93;27.77;;;;;;;;;;6262282;28;20326;-48
2022/04/24 04:00:09;;;;;;;65.93;27.45;;;;;;;;;;6263845;28;20458;-48
2022/04/24 04:03:10;;;;;;;59.75;27.67;;;;;;;;;;6263286;28;20118;-49
2022/04/24 04:06:11;;;;;;;59.45;27.40;;;;;;;;;;6263572;28;20073;-52
2022/04/24 04:09:11;;;;;;;60.28;28.20;;;;;;;;;;6265051;28;20045;-48
2022/04/24 04:12:12;;;;;;;51.88;24.77;;;;;;;;;;6263351;28;20075;-48
2022/04/24 04:15:13;;;;;;;47.20;21.38;;;;;;;;;;6263787;28;20160;-47
2022/04/24 04:18:13;;;;;;;41.05;21.42;;;;;;;;;;6264803;28;20059;-47
2022/04/24 04:21:14;;;;;;;37.10;20.45;;;;;;;;;;6263447;28;20404;-48
2022/04/24 04:24:15;;;;;;;33.08;18.50;;;;;;;;;;6261384;28;20513;-47
2022/04/24 04:27:15;;;;;;;37.15;19.10;;;;;;;;;;6261614;28;20040;-48
2022/04/24 04:30:16;;;;;;;36.28;20.65;;;;;;;;;;6264856;28;20080;-48
2022/04/24 04:33:17;;;;;;;41.13;22.73;;;;;;;;;;6262249;28;20096;-48
2022/04/24 04:36:17;;;;;;;39.17;24.20;;;;;;;;;;6265142;28;20527;-48
2022/04/24 04:39:19;;;;;;;46.17;24.50;;;;;;;;;;6267694;28;20045;-48
2022/04/24 04:42:20;;;;;;;42.25;21.98;;;;;;;;;;6267632;28;20095;-48
2022/04/24 04:45:21;;;;;;;37.58;21.67;;;;;;;;;;6267190;28;20056;-49
2022/04/24 04:48:22;;;;;;;39.00;22.58;;;;;;;;;;6268506;28;20502;-48
2022/04/24 04:51:22;;;;;;;40.78;21.92;;;;;;;;;;6266255;28;20500;-48
2022/04/24 04:54:23;;;;;;;44.25;23.55;;;;;;;;;;6267390;28;20098;-49
2022/04/24 04:57:23;;;;;;;44.05;22.88;;;;;;;;;;6268742;28;20412;-48
2022/04/24 05:00:24;;;;;;;42.40;24.42;;;;;;;;;;6268851;28;20069;-47
2022/04/24 05:03:25;;;;;;;41.45;22.63;;;;;;;;;;6265938;28;20072;-47
2022/04/24 05:06:25;;;;;;;43.35;23.27;;;;;;;;;;6269485;28;20851;-48
2022/04/24 05:09:26;;;;;;;36.53;21.98;;;;;;;;;;6265247;28;20053;-47
2022/04/24 05:12:27;;;;;;;38.58;21.52;;;;;;;;;;6269582;28;20095;-49
2022/04/24 05:15:28;;;;;;;41.08;21.98;;;;;;;;;;6269679;28;20107;-49
2022/04/24 05:18:28;;;;;;;40.40;21.65;;;;;;;;;;6269871;28;20606;-56
2022/04/24 05:21:29;;;;;;;37.50;21.45;;;;;;;;;;6270421;28;20056;-49
2022/04/24 05:24:29;;;;;;;36.80;22.02;;;;;;;;;;6269805;28;20128;-47
2022/04/24 05:27:31;;;;;;;39.55;21.77;;;;;;;;;;6271257;28;20049;-47
2022/04/24 05:30:32;;;;;;;41.10;22.42;;;;;;;;;;6269579;28;20441;-48
2022/04/24 05:33:33;;;;;;;44.35;24.20;;;;;;;;;;6268532;28;20064;-48
2022/04/24 05:36:33;;;;;;;46.58;24.33;;;;;;;;;;6269890;28;20456;-48
2022/04/24 05:39:34;;;;;;;43.67;24.98;;;;;;;;;;6266797;28;20052;-49
2022/04/24 05:42:35;;;;;;;42.47;24.73;;;;;;;;;;6265689;28;20052;-47
2022/04/24 05:45:36;;;;;;;43.38;24.25;;;;;;;;;;6267302;28;20044;-47
2022/04/24 05:48:37;;;;;;;43.30;22.87;;;;;;;;;;6271001;28;20554;-47
2022/04/24 05:51:37;;;;;;;40.60;23.50;;;;;;;;;;6269531;28;20049;-47
2022/04/24 05:54:38;;;;;;;47.50;25.27;;;;;;;;;;6268854;28;20051;-48
2022/04/24 05:57:39;;;;;;;43.13;24.05;;;;;;;;;;6269758;28;20053;-47
2022/04/24 06:00:39;;;;;;;42.20;23.65;;;;;;;;;;6269688;28;20084;-48
2022/04/24 06:03:40;;;;;;;41.70;23.42;;;;;;;;;;6268012;28;20048;-49
2022/04/24 06:06:41;;;;;;;43.40;23.88;;;;;;;;;;6269210;28;20110;-49
2022/04/24 06:09:41;;;;;;;39.40;23.17;;;;;;;;;;6269882;28;20508;-48
2022/04/24 06:12:49;;;;;;;43.40;24.65;;;;;;;;;;6267874;28;20537;-50
2022/04/24 06:15:54;;;;;;;42.17;24.10;;;;;;;;;;6269438;28;20045;-48
2022/04/24 06:18:54;;;;;;;44.03;25.23;;;;;;;;;;6268853;28;20049;-48
2022/04/24 06:21:55;;;;;;;40.22;23.98;;;;;;;;;;6267622;28;20045;-49
2022/04/24 06:24:55;;;;;;;43.65;24.08;;;;;;;;;;6268847;28;20048;-48
2022/04/24 06:27:57;;;;;;;45.13;24.73;;;;;;;;;;6270424;28;20474;-63
2022/04/24 06:30:57;;;;;;;38.60;22.73;;;;;;;;;;6267971;28;20388;-49
2022/04/24 06:33:58;;;;;;;38.53;21.98;;;;;;;;;;6266527;28;20072;-48
2022/04/24 06:36:58;;;;;;;39.05;22.08;;;;;;;;;;6267788;28;20477;-48
2022/04/24 06:39:59;;;;;;;35.33;21.55;;;;;;;;;;6265762;28;20496;-47
2022/04/24 06:43:04;;;;;;;41.33;25.17;;;;;;;;;;6265971;28;20132;-62
2022/04/24 06:46:04;;;;;;;43.42;25.98;;;;;;;;;;6270331;28;20148;-48
2022/04/24 06:49:05;;;;;;;40.90;24.63;;;;;;;;;;6268866;28;20448;-48
2022/04/24 06:52:06;;;;;;;34.47;22.60;;;;;;;;;;6265201;28;20064;-48
2022/04/24 06:55:07;;;;;;;39.33;23.45;;;;;;;;;;6266234;28;20412;-51
2022/04/24 06:58:09;;;;;;;40.55;24.10;;;;;;;;;;6265899;28;20186;-51
2022/04/24 07:01:10;;;;;;;38.97;22.27;;;;;;;;;;6266311;28;20859;-49
2022/04/24 07:04:10;;;;;;;37.90;22.48;;;;;;;;;;6266024;28;20055;-53
2022/04/24 07:07:11;;;;;;;45.30;26.02;;;;;;;;;;6266422;28;20127;-49
2022/04/24 07:10:12;;;;;;;48.08;26.92;;;;;;;;;;6266720;28;20049;-49
2022/04/24 07:13:12;;;;;;;47.20;28.50;;;;;;;;;;6264918;28;20121;-49
2022/04/24 07:16:13;;;;;;;46.40;29.02;;;;;;;;;;6265227;28;20053;-49
2022/04/24 07:19:14;;;;;;;56.72;31.40;;;;;;;;;;6264396;28;20396;-49
2022/04/24 07:22:17;;;;;;;50.60;28.98;;;;;;;;;;6264618;28;20139;-49
2022/04/24 07:25:20;;;;;;;54.75;30.38;;;;;;;;;;6265614;28;20040;-52
2022/04/24 07:28:22;;;;;;;45.60;25.13;;;;;;;;;;6264186;28;20157;-50
2022/04/24 07:31:23;;;;;;;42.33;25.17;;;;;;;;;;6261393;28;20567;-49
2022/04/24 07:34:23;;;;;;;39.75;24.85;;;;;;;;;;6260141;28;20063;-48
2022/04/24 07:37:24;;;;;;;45.25;26.52;;;;;;;;;;6264161;28;20148;-49
2022/04/24 07:40:28;;;;;;;39.53;23.25;;;;;;;;;;6263333;28;20067;-50
2022/04/24 07:43:29;;;;;;;45.60;24.67;;;;;;;;;;6264380;28;20044;-50
2022/04/24 07:46:31;;;;;;;42.00;24.00;;;;;;;;;;6266254;28;20118;-50
2022/04/24 07:49:32;;;;;;;42.22;24.02;;;;;;;;;;6263825;28;20151;-52
2022/04/24 07:52:33;;;;;;;39.87;21.87;;;;;;;;;;6261372;28;20496;-50
2022/04/24 07:55:34;;;;;;;39.28;21.95;;;;;;;;;;6265892;28;20139;-52
2022/04/24 07:58:35;;;;;;;38.67;22.63;;;;;;;;;;6264410;28;20052;-50
2022/04/24 08:01:35;;;;;;;40.72;23.23;;;;;;;;;;6265164;28;20065;-49
2022/04/24 08:04:36;;;;;;;45.33;23.65;;;;;;;;;;6264660;28;20053;-52
2022/04/24 08:07:36;;;;;;;46.05;24.17;;;;;;;;;;6265462;28;20080;-48
2022/04/24 08:10:39;;;;;;;40.53;22.73;;;;;;;;;;6263286;28;20059;-49
2022/04/24 08:13:39;;;;;;;41.90;25.10;;;;;;;;;;6259060;28;20053;-49
2022/04/24 08:16:40;;;;;;;40.92;22.67;;;;;;;;;;6260941;28;20719;-49
2022/04/24 08:19:43;;;;;;;36.33;19.85;;;;;;;;;;6261830;28;20072;-48
2022/04/24 08:22:45;;;;;;;31.73;19.77;;;;;;;;;;6260560;28;20045;-49
2022/04/24 08:25:46;;;;;;;38.22;20.30;;;;;;;;;;6262588;28;20056;-48
2022/04/24 08:28:47;;;;;;;36.30;21.23;;;;;;;;;;6261258;28;20470;-49
2022/04/24 08:31:47;;;;;;;38.45;22.50;;;;;;;;;;6262403;28;20341;-50
2022/04/24 08:34:48;;;;;;;39.55;22.77;;;;;;;;;;6263630;28;20057;-48
2022/04/24 08:37:49;;;;;;;44.85;25.73;;;;;;;;;;6262995;28;20071;-49
2022/04/24 08:40:50;;;;;;;50.08;26.73;;;;;;;;;;6262265;28;20049;-50
2022/04/24 08:43:51;;;;;;;68.50;34.42;;;;;;;;;;6261984;28;20132;-49
2022/04/24 08:46:52;;;;;;;60.63;31.90;;;;;;;;;;6261398;28;20048;-49
2022/04/24 08:49:57;;;;;;;54.90;30.73;;;;;;;;;;6263486;28;20662;-52
2022/04/24 08:52:59;;;;;;;54.88;30.17;;;;;;;;;;6261102;28;20049;-49
2022/04/24 08:56:00;;;;;;;50.58;29.90;;;;;;;;;;6258981;28;20045;-50
2022/04/24 08:59:01;;;;;;;53.17;30.25;;;;;;;;;;6260953;28;20126;-50
2022/04/24 09:02:02;;;;;;;50.75;30.15;;;;;;;;;;6260108;28;20049;-50
2022/04/24 09:05:06;;;;;;;55.15;30.40;;;;;;;;;;6261241;28;20067;-49
2022/04/24 09:08:12;;;;;;;60.50;32.40;;;;;;;;;;6262779;28;20494;-52
2022/04/24 09:11:13;;;;;;;56.83;31.25;;;;;;;;;;6260682;28;20496;-50
2022/04/24 09:14:24;;;;;;;61.53;34.83;;;;;;;;;;6259454;28;20056;-50
2022/04/24 09:17:30;;;;;;;63.45;33.90;;;;;;;;;;6258074;28;20530;-50
2022/04/24 09:20:34;;;;;;;66.18;34.72;;;;;;;;;;6256088;28;20137;-50
2022/04/24 09:23:39;;;;;;;78.07;37.78;;;;;;;;;;6256063;28;20068;-50
2022/04/24 09:26:49;;;;;;;70.70;33.78;;;;;;;;;;6260573;28;20052;-49
2022/04/24 09:29:55;;;;;;;68.30;32.85;;;;;;;;;;6264172;28;20055;-52
2022/04/24 09:32:56;;;;;;;59.75;30.80;;;;;;;;;;6262994;28;20048;-50
2022/04/24 09:35:57;;;;;;;52.23;28.80;;;;;;;;;;6264167;28;20053;-48
2022/04/24 09:38:57;;;;;;;50.92;27.58;;;;;;;;;;6264095;28;20167;-48
2022/04/24 09:42:15;;;;;;;48.85;27.60;;;;;;;;;;6264317;28;20462;-49
2022/04/24 09:45:23;;;;;;;47.08;27.73;;;;;;;;;;6262789;28;20949;-48
2022/04/24 09:48:28;;;;;;;41.95;24.30;;;;;;;;;;6264573;28;20091;-50
2022/04/24 09:51:28;;;;;;;47.47;27.15;;;;;;;;;;6257690;28;20200;-49
2022/04/24 09:54:30;;;;;;;50.58;28.77;;;;;;;;;;6255976;28;20048;-52
2022/04/24 09:57:30;;;;;;;53.80;33.50;;;;;;;;;;6252006;28;20140;-56
2022/04/24 10:00:33;;;;;;;44.85;26.95;;;;;;;;;;6254531;28;20674;-50
2022/04/24 10:03:39;;;;;;;41.08;24.70;;;;;;;;;;6254477;28;20041;-49
2022/04/24 10:06:40;;;;;;;41.78;23.77;;;;;;;;;;6255405;28;20040;-49
2022/04/24 10:09:44;;;;;;;39.25;22.33;;;;;;;;;;6251690;28;20144;-48
2022/04/24 10:12:48;;;;;;;34.67;19.95;;;;;;;;;;6253940;28;20076;-50
2022/04/24 10:15:55;;;;;;;32.83;18.45;;;;;;;;;;6237596;28;20077;-49
2022/04/24 10:19:21;;;;;;;31.27;17.90;;;;;;;;;;6256466;28;20092;-50
2022/04/24 10:22:33;;;;;;;30.17;17.17;;;;;;;;;;6244440;28;20064;-51
2022/04/24 10:25:41;;;;;;;27.13;15.47;;;;;;;;;;6255621;28;20052;-53
2022/04/24 10:28:46;;;;;;;30.83;18.13;;;;;;;;;;6252446;28;20061;-48
2022/04/24 10:31:48;;;;;;;30.33;17.63;;;;;;;;;;6253410;28;20081;-52
2022/04/24 10:34:49;;;;;;;31.05;17.83;;;;;;;;;;6256672;28;20450;-50
2022/04/24 10:37:49;;;;;;;28.33;16.90;;;;;;;;;;6252787;28;20056;-50
2022/04/24 10:41:13;;;;;;;27.00;15.88;;;;;;;;;;6252613;28;20079;-48
2022/04/24 10:44:15;;;;;;;31.20;16.30;;;;;;;;;;6251466;28;20072;-55
2022/04/24 10:47:15;;;;;;;25.00;14.95;;;;;;;;;;6251541;28;20047;-51
2022/04/24 10:50:20;;;;;;;33.25;17.15;;;;;;;;;;6251003;28;20053;-52
2022/04/24 10:53:20;;;;;;;27.15;16.13;;;;;;;;;;6252498;28;20048;-58
2022/04/24 10:56:21;;;;;;;28.95;15.93;;;;;;;;;;6253839;28;20055;-60
2022/04/24 10:59:22;;;;;;;27.38;16.25;;;;;;;;;;6253342;28;20049;-60
2022/04/24 11:02:28;;;;;;;25.85;16.20;;;;;;;;;;6255614;28;20060;-49
2022/04/24 11:05:36;;;;;;;27.45;16.38;;;;;;;;;;6256465;28;20159;-52
2022/04/24 11:08:41;;;;;;;31.10;18.33;;;;;;;;;;6257399;28;20073;-56
2022/04/24 11:11:48;;;;;;;33.50;17.45;;;;;;;;;;6253736;28;20053;-54
2022/04/24 11:14:50;;;;;;;33.08;16.85;;;;;;;;;;6256945;28;20067;-54
2022/04/24 11:17:51;;;;;;;27.10;16.83;;;;;;;;;;6256159;28;20049;-50
2022/04/24 11:21:01;;;;;;;25.25;15.88;;;;;;;;;;6254906;28;20087;-54
2022/04/24 11:24:06;;;;;;;26.30;15.40;;;;;;;;;;6256876;28;20053;-50
2022/04/24 11:27:12;;;;;;;23.85;13.82;;;;;;;;;;6257422;28;20061;-51
2022/04/24 11:30:17;;;;;;;23.27;13.45;;;;;;;;;;6255996;28;20053;-50
2022/04/24 11:33:18;;;;;;;23.30;13.85;;;;;;;;;;6253150;28;20511;-56
2022/04/24 11:36:19;;;;;;;22.70;13.35;;;;;;;;;;6256327;28;20063;-54
2022/04/24 11:39:20;;;;;;;23.03;12.47;;;;;;;;;;6257194;28;20071;-51
2022/04/24 11:42:20;;;;;;;20.42;12.10;;;;;;;;;;6254666;28;20409;-50
2022/04/24 11:52:00;;;;;;;21.08;11.68;;;;;;;;;;6255523;28;20540;-49
2022/04/24 11:55:01;;;;;;;21.02;10.65;;;;;;;;;;6254805;28;20773;-50
2022/04/24 11:58:04;;;;;;;17.83;9.93;;;;;;;;;;6257618;28;20060;-48
2022/04/24 12:01:10;;;;;;;15.65;9.73;;;;;;;;;;6251602;28;20107;-53
2022/04/24 12:04:20;;;;;;;20.55;11.30;;;;;;;;;;6254720;28;20393;-50
2022/04/24 12:07:28;;;;;;;21.55;13.77;;;;;;;;;;6253489;28;20056;-50
2022/04/24 12:10:29;;;;;;;17.85;11.32;;;;;;;;;;6255365;28;20136;-56
2022/04/24 12:13:29;;;;;;;23.15;12.35;;;;;;;;;;6254525;28;20118;-54
2022/04/24 12:16:30;;;;;;;19.20;11.48;;;;;;;;;;6250782;28;20134;-54
2022/04/24 12:19:32;;;;;;;19.50;11.55;;;;;;;;;;6254040;28;20049;-56
2022/04/24 12:22:37;;;;;;;21.08;12.23;;;;;;;;;;6256499;28;20456;-58
2022/04/24 12:25:49;;;;;;;18.83;11.82;;;;;;;;;;6256243;28;20071;-54
2022/04/24 12:28:49;;;;;;;18.77;12.25;;;;;;;;;;6255821;28;20064;-54
2022/04/24 12:31:50;;;;;;;18.98;12.20;;;;;;;;;;6255184;28;20049;-55
2022/04/24 12:34:51;;;;;;;20.63;11.85;;;;;;;;;;6256703;28;20068;-57
2022/04/24 12:37:51;;;;;;;21.23;12.75;;;;;;;;;;6254701;28;20045;-55
2022/04/24 12:40:57;;;;;;;20.42;12.50;;;;;;;;;;6254087;28;20068;-57
2022/04/24 12:43:59;;;;;;;22.90;13.38;;;;;;;;;;6255107;28;20061;-55
2022/04/24 12:47:04;;;;;;;24.33;13.38;;;;;;;;;;6252358;28;20045;-58
2022/04/24 12:50:05;;;;;;;24.83;14.32;;;;;;;;;;6254950;28;20041;-57
2022/04/24 12:53:05;;;;;;;21.58;14.25;;;;;;;;;;6252654;28;20128;-59
2022/04/24 12:56:06;;;;;;;25.38;13.77;;;;;;;;;;6254860;28;20540;-59
2022/04/24 12:59:07;;;;;;;22.80;13.93;;;;;;;;;;6235943;28;20053;-59
2022/04/24 13:02:09;;;;;;;20.52;12.45;;;;;;;;;;6256577;28;20125;-59
2022/04/24 13:05:09;;;;;;;18.45;12.38;;;;;;;;;;6260492;28;20049;-59
2022/04/24 13:08:10;;;;;;;18.88;12.25;;;;;;;;;;6260415;28;20040;-59
2022/04/24 13:11:11;;;;;;;21.08;13.30;;;;;;;;;;6259891;28;20135;-60
2022/04/24 13:14:11;;;;;;;23.60;12.70;;;;;;;;;;6261073;28;20407;-59
2022/04/24 13:20:33;;;;;;;24.63;13.10;;;;;;;;;;6258432;28;20057;-61
2022/04/24 13:23:34;;;;;;;22.75;12.88;;;;;;;;;;6256929;28;20645;-60
2022/04/24 13:26:34;;;;;;;19.15;12.43;;;;;;;;;;6256504;28;20045;-59
2022/04/24 13:29:35;;;;;;;23.20;13.93;;;;;;;;;;6254844;28;20461;-59
2022/04/24 13:32:36;;;;;;;20.17;12.88;;;;;;;;;;6252817;28;20050;-60
2022/04/24 13:35:36;;;;;;;20.60;12.60;;;;;;;;;;6255597;28;20052;-61
2022/04/24 13:38:39;;;;;;;21.33;11.60;;;;;;;;;;6253936;28;20049;-60
2022/04/24 13:41:39;;;;;;;19.58;11.77;;;;;;;;;;6255454;28;20167;-60
2022/04/24 13:44:40;;;;;;;19.75;11.02;;;;;;;;;;6258407;28;20053;-59
2022/04/24 13:47:41;;;;;;;18.30;10.93;;;;;;;;;;6254497;28;20049;-60
2022/04/24 13:50:42;;;;;;;18.52;11.65;;;;;;;;;;6258049;28;20059;-59
2022/04/24 13:53:45;;;;;;;21.17;12.30;;;;;;;;;;6257273;28;20106;-59
2022/04/24 13:56:45;;;;;;;19.17;10.30;;;;;;;;;;6257702;28;20076;-59
2022/04/24 13:59:46;;;;;;;15.20;9.05;;;;;;;;;;6257763;28;20041;-59
2022/04/24 14:02:47;;;;;;;16.88;9.10;;;;;;;;;;6257320;28;20059;-59
2022/04/24 14:05:48;;;;;;;17.63;9.48;;;;;;;;;;6258535;28;20076;-58
2022/04/24 14:08:49;;;;;;;17.38;9.60;;;;;;;;;;6256977;28;20052;-58
2022/04/24 14:11:50;;;;;;;18.00;9.88;;;;;;;;;;6255257;28;20526;-55
2022/04/24 14:14:50;;;;;;;17.70;9.98;;;;;;;;;;6259030;28;20844;-58
2022/04/24 14:17:55;;;;;;;15.40;8.68;;;;;;;;;;6257898;28;20049;-58
2022/04/24 14:20:55;;;;;;;14.52;9.07;;;;;;;;;;6256798;28;21368;-59
2022/04/24 14:23:56;;;;;;;15.95;9.23;;;;;;;;;;6258904;28;20052;-58
2022/04/24 14:26:56;;;;;;;16.73;10.15;;;;;;;;;;6250241;28;20139;-58
2022/04/24 14:29:57;;;;;;;25.65;9.77;;;;;;;;;;6254025;28;20049;-58
2022/04/24 14:32:58;;;;;;;17.73;10.50;;;;;;;;;;6254497;28;20072;-58
2022/04/24 14:35:59;;;;;;;15.02;8.52;;;;;;;;;;6257106;28;20056;-59
2022/04/24 14:38:59;;;;;;;16.35;8.95;;;;;;;;;;6253297;28;20574;-59
2022/04/24 14:42:00;;;;;;;12.63;8.02;;;;;;;;;;6255806;28;20091;-59
2022/04/24 14:45:02;;;;;;;16.48;8.65;;;;;;;;;;6255632;28;20136;-59
2022/04/24 14:58:02;;;;;;;12.18;7.30;;;;;;;;;;6255115;28;20164;-59
2022/04/24 15:01:03;;;;;;;11.48;7.70;;;;;;;;;;6253079;28;20048;-59
2022/04/24 15:04:04;;;;;;;14.25;7.68;;;;;;;;;;6256863;28;20460;-64
2022/04/24 15:07:05;;;;;;;12.63;7.15;;;;;;;;;;6257641;28;20140;-58
2022/04/24 15:10:06;;;;;;;12.43;7.82;;;;;;;;;;6254199;28;20041;-58
2022/04/24 15:13:07;;;;;;;12.13;7.73;;;;;;;;;;6250631;28;20076;-56
2022/04/24 15:16:08;;;;;;;14.48;7.47;;;;;;;;;;6256821;28;20830;-57
2022/04/24 15:19:09;;;;;;;14.43;7.20;;;;;;;;;;6256812;28;20098;-59
2022/04/24 15:22:12;;;;;;;12.60;7.28;;;;;;;;;;6253273;28;20294;-58
2022/04/24 15:25:13;;;;;;;11.35;6.68;;;;;;;;;;6256192;28;20056;-58
2022/04/24 15:28:14;;;;;;;10.70;6.70;;;;;;;;;;6256644;28;20048;-57
2022/04/24 15:31:14;;;;;;;16.65;9.23;;;;;;;;;;6252961;28;20124;-60
2022/04/24 15:34:15;;;;;;;16.40;9.52;;;;;;;;;;6255120;28;20103;-54
2022/04/24 15:37:17;;;;;;;16.25;9.05;;;;;;;;;;6253619;28;20048;-57
2022/04/24 15:40:18;;;;;;;20.50;10.18;;;;;;;;;;6254268;28;20476;-55
2022/04/24 15:43:18;;;;;;;17.65;10.00;;;;;;;;;;6253113;28;20049;-57
2022/04/24 15:46:19;;;;;;;14.35;8.10;;;;;;;;;;6255445;28;20049;-58
2022/04/24 15:49:19;;;;;;;14.15;8.35;;;;;;;;;;6256095;28;20049;-58
2022/04/24 15:52:20;;;;;;;11.18;6.30;;;;;;;;;;6253748;28;20049;-57
2022/04/24 15:55:22;;;;;;;12.00;5.63;;;;;;;;;;6254632;28;20064;-57
2022/04/24 15:58:22;;;;;;;18.80;9.25;;;;;;;;;;6254751;28;20049;-58
2022/04/24 16:01:28;;;;;;;10.38;6.35;;;;;;;;;;6252698;28;20072;-59
2022/04/24 16:04:28;;;;;;;11.55;6.60;;;;;;;;;;6256532;28;20057;-66
2022/04/24 16:07:29;;;;;;;13.82;8.23;;;;;;;;;;6255989;28;20068;-57
2022/04/24 16:10:29;;;;;;;14.95;8.82;;;;;;;;;;6255424;28;20059;-59
2022/04/24 16:13:30;;;;;;;18.35;10.35;;;;;;;;;;6254396;28;20053;-58
2022/04/24 16:16:31;;;;;;;20.58;10.50;;;;;;;;;;6256793;28;20057;-58
2022/04/24 16:19:32;;;;;;;21.80;11.77;;;;;;;;;;6255734;28;20053;-59
2022/04/24 16:22:33;;;;;;;30.80;17.07;;;;;;;;;;6252084;28;20136;-58
2022/04/24 16:25:34;;;;;;;46.58;23.55;;;;;;;;;;6253554;28;20041;-57
2022/04/24 16:28:34;;;;;;;34.35;16.58;;;;;;;;;;6252881;28;20047;-58
2022/04/24 16:31:36;;;;;;;22.63;11.30;;;;;;;;;;6252058;28;20048;-57
2022/04/24 16:34:36;;;;;;;24.63;13.80;;;;;;;;;;6255535;28;20049;-60
2022/04/24 16:37:38;;;;;;;17.90;10.40;;;;;;;;;;6258655;28;20083;-58
2022/04/24 16:40:38;;;;;;;15.98;8.55;;;;;;;;;;6252148;28;20045;-58
2022/04/24 16:43:39;;;;;;;15.32;9.00;;;;;;;;;;6252430;28;20060;-56
2022/04/24 16:46:40;;;;;;;15.35;8.43;;;;;;;;;;6255475;28;20048;-60
2022/04/24 16:49:40;;;;;;;6.97;2.90;;;;;;;;;;6254998;28;20456;-57
2022/04/24 16:59:19;;;;;;;5.30;2.40;;;;;;;;;;6257254;28;20160;-58
2022/04/24 17:02:20;;;;;;;19.45;8.50;;;;;;;;;;6253628;28;20045;-58
2022/04/24 17:05:20;;;;;;;9.57;3.60;;;;;;;;;;6255722;28;20049;-57
2022/04/24 17:08:21;;;;;;;9.07;4.57;;;;;;;;;;6237111;28;20106;-57
2022/04/24 17:11:22;;;;;;;11.40;5.85;;;;;;;;;;6252801;28;20155;-59
2022/04/24 17:14:22;;;;;;;13.07;6.55;;;;;;;;;;6253282;28;20071;-58
2022/04/24 17:17:23;;;;;;;15.00;6.47;;;;;;;;;;6253844;28;20416;-58
2022/04/24 17:20:24;;;;;;;12.48;5.68;;;;;;;;;;6257916;28;20498;-58
2022/04/24 17:23:25;;;;;;;12.10;5.30;;;;;;;;;;6252086;28;20079;-56
2022/04/24 17:26:25;;;;;;;12.20;5.57;;;;;;;;;;6256029;28;20187;-57
2022/04/24 17:29:26;;;;;;;10.02;4.68;;;;;;;;;;6256376;28;20520;-58
2022/04/24 17:32:29;;;;;;;9.20;4.20;;;;;;;;;;6251856;28;20098;-56
2022/04/24 17:35:30;;;;;;;8.75;4.22;;;;;;;;;;6256025;28;20053;-58
2022/04/24 17:38:31;;;;;;;11.98;4.60;;;;;;;;;;6255719;28;20049;-57
2022/04/24 17:41:34;;;;;;;8.30;3.22;;;;;;;;;;6251534;28;20136;-59
2022/04/24 17:44:35;;;;;;;7.13;3.60;;;;;;;;;;6252754;28;20848;-59
2022/04/24 17:47:35;;;;;;;9.30;4.15;;;;;;;;;;6255379;28;20041;-58
2022/04/24 17:50:37;;;;;;;8.30;3.72;;;;;;;;;;6254023;28;20152;-58
2022/04/24 17:53:38;;;;;;;9.10;3.95;;;;;;;;;;6251759;28;20061;-60
2022/04/24 17:56:39;;;;;;;8.70;4.30;;;;;;;;;;6254987;28;20135;-60
2022/04/24 17:59:40;;;;;;;9.18;4.97;;;;;;;;;;6254513;28;20051;-58
2022/04/24 18:02:40;;;;;;;9.05;3.97;;;;;;;;;;6250355;28;20053;-60
2022/04/24 18:05:41;;;;;;;21.48;10.70;;;;;;;;;;6253968;28;20049;-57
2022/04/24 18:08:43;;;;;;;12.93;6.05;;;;;;;;;;6251817;28;20052;-60